Latest Weather Observations for Sellicks Hill

IDS60801

Issued at 1:35 am CDT Thursday 27 November 2014 (issued every 30 minutes, with the page automatically refreshed every 10 minutes)

About weather observations | Map of weather stations | Latest weather observations for SA | Other Formats
Station Details ID: 023886 Name: MOUNT TERRIBLE RADAR Lat: -35.33 Lon: 138.50 Height: 385.7 m
Data from the previous 72 hours. | See also: Recent months for locations in South Australia
Date/Time
CDT
Temp
°C
App
Temp
°C
Dew
Point
Rel
Hum
%
Delta-T
°C
Wind Press
QNH
hPa
Press
MSL
hPa
Rain
since 9 am
mm
Dir
 
Spd
km/h
Gust
km/h
Spd
kts
Gust
kts
27/01:30am - - - - - SE 41 50 22 27 - - -
27/01:00am - - - - - SSE 41 50 22 27 - - -
27/12:30am - - - - - SE 43 52 23 28 - - -
27/12:00am - - - - - SSE 41 46 22 25 - - -
 
Date/Time
CDT
Temp
°C
App
Temp
°C
Dew
Point
Rel
Hum
%
Delta-T
°C
Wind Press
QNH
hPa
Press
MSL
hPa
Rain
since 9 am
mm
Dir
 
Spd
km/h
Gust
km/h
Spd
kts
Gust
kts
26/11:30pm - - - - - SSE 41 48 22 26 - - -
26/11:00pm - - - - - SSE 37 48 20 26 - - -
26/10:30pm - - - - - SSE 33 43 18 23 - - -
26/10:00pm - - - - - SSE 43 50 23 27 - - -
26/09:30pm - - - - - SSE 37 46 20 25 - - -
26/09:00pm - - - - - SSE 44 52 24 28 - - -
26/08:30pm - - - - - SSE 44 56 24 30 - - -
26/08:00pm - - - - - SSE 46 54 25 29 - - -
26/07:30pm - - - - - SE 46 59 25 32 - - -
26/07:00pm - - - - - SSE 52 61 28 33 - - -
26/06:30pm - - - - - SSE 50 59 27 32 - - -
26/06:00pm - - - - - SSE 50 59 27 32 - - -
26/05:30pm - - - - - SSE 46 56 25 30 - - -
26/05:00pm - - - - - SSE 43 50 23 27 - - -
26/04:30pm - - - - - SSE 39 52 21 28 - - -
26/04:00pm - - - - - SSE 39 48 21 26 - - -
26/03:30pm - - - - - SSE 37 46 20 25 - - -
26/03:00pm - - - - - SSE 32 41 17 22 - - -
26/02:30pm - - - - - SSE 32 41 17 22 - - -
26/02:00pm - - - - - SSE 28 37 15 20 - - -
26/01:30pm - - - - - SSE 24 35 13 19 - - -
26/01:00pm - - - - - S 20 30 11 16 - - -
26/12:30pm - - - - - SSE 19 28 10 15 - - -
26/12:00pm - - - - - SSE 17 26 9 14 - - -
26/11:30am - - - - - SE 11 20 6 11 - - -
26/11:00am - - - - - SE 15 20 8 11 - - -
26/10:30am - - - - - SSE 17 24 9 13 - - -
26/10:00am - - - - - SSE 13 22 7 12 - - -
26/09:30am - - - - - SSE 19 26 10 14 - - -
26/09:00am - - - - - SSE 20 28 11 15 - - -
26/08:30am - - - - - SSE 24 30 13 16 - - -
26/08:00am - - - - - SSE 19 24 10 13 - - -
26/07:30am - - - - - SE 17 20 9 11 - - -
26/07:00am - - - - - SE 15 19 8 10 - - -
26/06:30am - - - - - SE 19 22 10 12 - - -
26/06:00am - - - - - SSE 19 20 10 11 - - -
26/05:30am - - - - - SSE 20 20 11 11 - - -
26/05:00am - - - - - SSE 20 22 11 12 - - -
26/04:30am - - - - - SSE 19 20 10 11 - - -
26/04:00am - - - - - SSE 17 19 9 10 - - -
26/03:30am - - - - - SSE 19 20 10 11 - - -
26/03:00am - - - - - SSE 20 20 11 11 - - -
26/02:30am - - - - - SSE 20 22 11 12 - - -
26/02:00am - - - - - SSE 24 26 13 14 - - -
26/01:30am - - - - - SSE 22 22 12 12 - - -
26/01:00am - - - - - SSE 19 20 10 11 - - -
26/12:30am - - - - - SSE 19 20 10 11 - - -
26/12:00am - - - - - SSE 19 20 10 11 - - -
 
Date/Time
CDT
Temp
°C
App
Temp
°C
Dew
Point
Rel
Hum
%
Delta-T
°C
Wind Press
QNH
hPa
Press
MSL
hPa
Rain
since 9 am
mm
Dir
 
Spd
km/h
Gust
km/h
Spd
kts
Gust
kts
25/11:30pm - - - - - SSE 20 24 11 13 - - -
25/11:00pm - - - - - SSE 20 22 11 12 - - -
25/10:30pm - - - - - SSE 20 26 11 14 - - -
25/10:00pm - - - - - SSE 20 22 11 12 - - -
25/09:30pm - - - - - SSE 20 22 11 12 - - -
25/09:00pm - - - - - SSE 20 26 11 14 - - -
25/08:30pm - - - - - SSE 22 28 12 15 - - -
25/08:00pm - - - - - S 22 28 12 15 - - -
25/07:30pm - - - - - S 26 30 14 16 - - -
25/07:00pm - - - - - S 22 28 12 15 - - -
25/06:30pm - - - - - S 19 26 10 14 - - -
25/06:00pm - - - - - S 19 30 10 16 - - -
25/05:30pm - - - - - S 15 30 8 16 - - -
25/05:00pm - - - - - SSW 7 15 4 8 - - -
25/04:30pm - - - - - W 11 20 6 11 - - -
25/04:00pm - - - - - W 9 20 5 11 - - -
25/03:30pm - - - - - W 9 22 5 12 - - -
25/03:00pm - - - - - WNW 9 19 5 10 - - -
25/02:30pm - - - - - WNW 11 20 6 11 - - -
25/02:00pm - - - - - WNW 9 19 5 10 - - -
25/01:30pm - - - - - WNW 11 20 6 11 - - -
25/01:00pm - - - - - WNW 9 19 5 10 - - -
25/12:30pm - - - - - W 7 19 4 10 - - -
25/12:00pm - - - - - W 9 20 5 11 - - -
25/11:30am - - - - - W 9 19 5 10 - - -
25/11:00am - - - - - WNW 9 20 5 11 - - -
25/10:30am - - - - - W 9 26 5 14 - - -
25/10:00am - - - - - SW 7 15 4 8 - - -
25/09:30am - - - - - W 6 15 3 8 - - -
25/09:00am - - - - - W 7 15 4 8 - - -
25/08:30am - - - - - W 4 11 2 6 - - -
25/08:00am - - - - - WSW 6 11 3 6 - - -
25/07:30am - - - - - SW 4 11 2 6 - - -
25/07:00am - - - - - SW 9 13 5 7 - - -
25/06:30am - - - - - SSW 11 17 6 9 - - -
25/06:00am - - - - - SSW 9 17 5 9 - - -
25/05:30am - - - - - SW 9 17 5 9 - - -
25/05:00am - - - - - SW 9 17 5 9 - - -
25/04:30am - - - - - SSW 9 13 5 7 - - -
25/04:00am - - - - - SSW 11 15 6 8 - - -
25/03:30am - - - - - SSW 9 13 5 7 - - -
25/03:00am - - - - - SW 7 11 4 6 - - -
25/02:30am - - - - - SW 9 15 5 8 - - -
25/02:00am - - - - - SW 9 13 5 7 - - -
25/01:30am - - - - - SSW 9 19 5 10 - - -
25/01:00am - - - - - SW 11 19 6 10 - - -
25/12:30am - - - - - SW 9 15 5 8 - - -
25/12:00am - - - - - SW 11 20 6 11 - - -
 
Date/Time
CDT
Temp
°C
App
Temp
°C
Dew
Point
Rel
Hum
%
Delta-T
°C
Wind Press
QNH
hPa
Press
MSL
hPa
Rain
since 9 am
mm
Dir
 
Spd
km/h
Gust
km/h
Spd
kts
Gust
kts
24/11:30pm - - - - - SW 9 19 5 10 - - -
24/11:00pm - - - - - SSW 9 17 5 9 - - -
24/10:30pm - - - - - SW 9 17 5 9 - - -
24/10:00pm - - - - - SW 13 22 7 12 - - -
24/09:30pm - - - - - SSW 11 19 6 10 - - -
24/09:00pm - - - - - S 13 26 7 14 - - -
24/08:30pm - - - - - S 13 20 7 11 - - -
24/08:00pm - - - - - SSW 11 17 6 9 - - -
24/07:30pm - - - - - SSW 13 20 7 11 - - -
24/07:00pm - - - - - SSW 13 24 7 13 - - -
24/06:30pm - - - - - WSW 9 24 5 13 - - -
24/06:00pm - - - - - W 13 26 7 14 - - -
24/05:30pm - - - - - W 17 33 9 18 - - -
24/05:00pm - - - - - WNW 17 35 9 19 - - -
24/04:30pm - - - - - WNW 17 33 9 18 - - -
24/04:00pm - - - - - WNW 15 28 8 15 - - -
24/03:30pm - - - - - WNW 15 26 8 14 - - -
24/03:00pm - - - - - W 13 28 7 15 - - -
24/02:30pm - - - - - WNW 13 28 7 15 - - -
24/02:00pm - - - - - WNW 15 30 8 16 - - -
24/01:30pm - - - - - W 11 24 6 13 - - -
24/01:00pm - - - - - W 13 28 7 15 - - -
24/12:30pm - - - - - W 11 28 6 15 - - -
24/12:00pm - - - - - WSW 6 13 3 7 - - -
24/11:30am - - - - - WNW 7 17 4 9 - - -
24/11:00am - - - - - WNW 11 26 6 14 - - -
24/10:30am - - - - - W 7 15 4 8 - - -
24/10:00am - - - - - SW 7 17 4 9 - - -
24/09:30am - - - - - S 19 28 10 15 - - -
24/09:00am - - - - - S 20 32 11 17 - - -
24/08:30am - - - - - S 24 35 13 19 - - -
24/08:00am - - - - - S 30 35 16 19 - - -
24/07:30am - - - - - S 28 33 15 18 - - -
24/07:00am - - - - - SSE 32 37 17 20 - - -
24/06:30am - - - - - S 35 41 19 22 - - -
24/06:00am - - - - - SSE 39 50 21 27 - - -
24/05:30am - - - - - SSE 41 52 22 28 - - -
24/05:00am - - - - - SSE 39 48 21 26 - - -
24/04:30am - - - - - SSE 35 41 19 22 - - -
24/04:00am - - - - - SSE 33 43 18 23 - - -
24/03:30am - - - - - S 32 44 17 24 - - -
24/03:00am - - - - - SSE 26 33 14 18 - - -
24/02:30am - - - - - SSE 26 32 14 17 - - -
24/02:00am - - - - - ESE 22 28 12 15 - - -

Other Formats:

Comma delimited format used in spreadsheet applications
http://www.bom.gov.au/fwo/IDS60801/IDS60801.95679.axf

JavaScript Object Notation format (JSON) in row-major order
http://www.bom.gov.au/fwo/IDS60801/IDS60801.95679.json